Time;durP1;ratioP1;P1;durP2;ratioP2;P2;SDS_P1;SDS_P2;PMS_P1;PMS_P2;Temp;Humidity;BMP_temperature;BMP_pressure;BME280_temperature;BME280_humidity;BME280_pressure;Samples;Min_cycle;Max_cycle;Signal;HPM_P1;HPM_P2
2023/10/18 00:01:19;;;;;;;1.35;0.55;;;18.10;59.60;;;;;;6081288;23;20163;-88
2023/10/18 00:03:45;;;;;;;0.95;0.55;;;18.10;59.60;;;;;;6103621;23;20172;-88
2023/10/18 00:06:15;;;;;;;0.63;0.45;;;18.10;59.60;;;;;;6100223;23;20516;-88
2023/10/18 00:08:45;;;;;;;0.57;0.50;;;18.10;59.60;;;;;;6127538;23;20183;-88
2023/10/18 00:11:10;;;;;;;0.88;0.55;;;18.10;59.60;;;;;;6051918;23;20231;-88
2023/10/18 00:13:36;;;;;;;0.85;0.50;;;18.10;59.70;;;;;;6099511;23;20222;-87
2023/10/18 00:16:08;;;;;;;0.52;0.40;;;18.00;59.60;;;;;;6098970;23;20268;-88
2023/10/18 00:18:36;;;;;;;0.70;0.50;;;18.00;59.60;;;;;;6027123;23;20160;-87
2023/10/18 00:21:03;;;;;;;0.80;0.57;;;18.10;59.60;;;;;;6051170;23;20167;-88
2023/10/18 00:23:31;;;;;;;0.90;0.50;;;18.10;59.60;;;;;;6051399;23;20292;-87
2023/10/18 00:26:00;;;;;;;0.50;0.40;;;18.10;59.70;;;;;;6051884;23;20247;-87
2023/10/18 00:28:26;;;;;;;0.50;0.50;;;18.10;59.60;;;;;;6051967;23;20238;-88
2023/10/18 00:30:56;;;;;;;0.60;0.43;;;18.00;59.60;;;;;;6051260;23;20230;-87
2023/10/18 00:33:21;;;;;;;1.35;0.50;;;18.00;59.70;;;;;;6099065;23;20147;-88
2023/10/18 00:35:57;;;;;;;0.80;0.50;;;18.00;59.60;;;;;;6075021;23;20159;-88
2023/10/18 00:38:24;;;;;;;0.70;0.40;;;18.00;59.60;;;;;;6030054;23;20491;-88
2023/10/18 00:40:56;;;;;;;1.02;0.40;;;18.00;59.60;;;;;;6074738;23;20194;-88
2023/10/18 00:43:25;;;;;;;0.70;0.47;;;18.00;59.70;;;;;;6052997;23;20155;-88
2023/10/18 00:45:53;;;;;;;0.90;0.47;;;18.00;59.60;;;;;;6076104;23;20403;-88
2023/10/18 00:48:24;;;;;;;1.75;0.60;;;18.00;59.60;;;;;;6056366;23;20179;-88
2023/10/18 00:50:52;;;;;;;1.00;0.43;;;17.90;59.60;;;;;;6080584;23;20156;-89
2023/10/18 00:53:20;;;;;;;0.70;0.50;;;18.00;59.70;;;;;;6078906;23;20151;-89
2023/10/18 00:55:48;;;;;;;0.60;0.38;;;18.00;59.80;;;;;;6105080;23;20163;-89
2023/10/18 00:58:15;;;;;;;1.13;0.50;;;18.00;59.80;;;;;;6129835;23;20186;-88
2023/10/18 01:00:43;;;;;;;0.73;0.40;;;18.00;59.80;;;;;;6129274;23;20158;-89
2023/10/18 01:03:15;;;;;;;0.82;0.50;;;18.00;59.70;;;;;;6129203;23;20151;-89
2023/10/18 01:05:59;;;;;;;0.40;0.40;;;18.00;59.70;;;;;;6153840;23;20136;-90
2023/10/18 01:08:26;;;;;;;0.93;0.57;;;18.00;59.80;;;;;;6153724;23;20167;-88
2023/10/18 01:10:51;;;;;;;0.77;0.40;;;18.00;59.60;;;;;;6099960;23;20148;-88
2023/10/18 01:13:23;;;;;;;1.63;0.50;;;17.90;59.60;;;;;;6146895;23;20139;-88
2023/10/18 01:15:53;;;;;;;0.85;0.45;;;18.00;59.60;;;;;;6056641;23;20151;-88
2023/10/18 01:18:19;;;;;;;1.88;0.60;;;18.00;59.80;;;;;;6103576;23;20206;-88
2023/10/18 01:20:46;;;;;;;0.60;0.50;;;18.00;59.70;;;;;;6129100;23;20155;-88
2023/10/18 01:23:12;;;;;;;0.80;0.40;;;17.90;59.70;;;;;;6129168;23;20147;-88
2023/10/18 01:25:37;;;;;;;0.38;0.38;;;18.00;59.70;;;;;;6129198;23;20143;-88
2023/10/18 01:28:05;;;;;;;0.88;0.50;;;17.90;59.60;;;;;;6153815;23;20171;-88
2023/10/18 01:30:33;;;;;;;0.50;0.32;;;18.00;59.70;;;;;;6100800;23;20223;-89
2023/10/18 01:33:01;;;;;;;0.50;0.30;;;18.00;59.70;;;;;;6129659;23;20218;-88
2023/10/18 01:35:27;;;;;;;1.45;0.82;;;18.00;59.80;;;;;;6128851;23;20602;-88
2023/10/18 01:37:53;;;;;;;0.57;0.47;;;18.00;59.80;;;;;;6129065;23;20151;-88
2023/10/18 01:43:01;;;;;;;0.70;0.50;;;18.00;59.70;;;;;;6161844;23;20652;-88
2023/10/18 01:45:36;;;;;;;0.70;0.50;;;18.00;59.70;;;;;;6158738;23;20567;-88
2023/10/18 01:48:04;;;;;;;1.00;0.40;;;18.00;59.70;;;;;;6112936;23;20193;-87
2023/10/18 01:50:30;;;;;;;0.82;0.40;;;18.00;59.70;;;;;;6135944;23;20609;-88
2023/10/18 01:53:00;;;;;;;0.38;0.30;;;18.00;59.70;;;;;;6135449;23;20412;-88
2023/10/18 01:55:28;;;;;;;0.93;0.40;;;18.00;59.80;;;;;;6087565;23;20173;-87
2023/10/18 01:57:53;;;;;;;0.40;0.40;;;17.90;59.70;;;;;;6136127;23;20150;-88
2023/10/18 02:00:19;;;;;;;0.40;0.40;;;18.00;59.60;;;;;;6160434;23;20218;-88
2023/10/18 02:02:49;;;;;;;1.10;0.50;;;18.00;59.70;;;;;;6111696;23;20151;-87
2023/10/18 02:05:19;;;;;;;0.50;0.40;;;18.00;59.80;;;;;;6086716;23;20159;-88
2023/10/18 02:07:48;;;;;;;1.25;0.57;;;18.00;59.70;;;;;;6086020;23;20182;-87
2023/10/18 02:10:23;;;;;;;1.55;0.50;;;17.90;59.80;;;;;;6110229;23;20161;-87
2023/10/18 02:12:49;;;;;;;1.33;0.60;;;17.90;59.80;;;;;;6136886;23;20225;-88
2023/10/18 02:15:16;;;;;;;0.32;0.30;;;17.90;59.70;;;;;;6135819;23;20123;-88
2023/10/18 02:17:51;;;;;;;1.00;0.50;;;18.00;59.80;;;;;;6111328;23;20182;-88
2023/10/18 02:20:27;;;;;;;0.40;0.32;;;18.00;59.80;;;;;;6139130;23;20161;-89
2023/10/18 02:23:02;;;;;;;0.75;0.30;;;17.90;59.80;;;;;;6090472;23;20160;-88
2023/10/18 02:25:43;;;;;;;0.60;0.40;;;17.90;59.80;;;;;;6137092;23;20541;-88
2023/10/18 02:28:22;;;;;;;1.25;0.38;;;17.90;59.90;;;;;;6117607;23;20187;-88
2023/10/18 02:30:55;;;;;;;0.80;0.40;;;17.90;59.80;;;;;;6139916;23;20127;-89
2023/10/18 02:33:23;;;;;;;1.45;0.30;;;17.90;59.80;;;;;;6161489;23;20127;-88
2023/10/18 02:35:57;;;;;;;0.93;0.30;;;17.90;59.70;;;;;;6135584;23;20131;-89
2023/10/18 02:38:24;;;;;;;0.32;0.32;;;17.90;59.80;;;;;;6088511;23;20221;-89
2023/10/18 02:40:50;;;;;;;0.30;0.30;;;17.90;59.70;;;;;;6135145;23;20143;-89
2023/10/18 02:43:20;;;;;;;1.23;0.45;;;17.90;59.60;;;;;;6111078;23;20147;-88
2023/10/18 02:45:51;;;;;;;0.30;0.30;;;17.90;59.70;;;;;;6086170;23;20162;-88
2023/10/18 02:48:22;;;;;;;0.82;0.45;;;17.90;59.70;;;;;;6062782;23;20190;-89
2023/10/18 02:50:49;;;;;;;0.55;0.40;;;17.90;59.80;;;;;;6113147;23;20147;-89
2023/10/18 02:53:17;;;;;;;0.50;0.30;;;17.90;59.80;;;;;;6110591;23;20193;-88
2023/10/18 02:55:55;;;;;;;0.40;0.40;;;17.90;59.80;;;;;;6111950;23;20226;-87
2023/10/18 02:58:22;;;;;;;0.52;0.43;;;17.90;59.80;;;;;;6112606;23;20234;-88
2023/10/18 03:00:50;;;;;;;0.40;0.40;;;17.90;59.80;;;;;;6111318;23;20151;-90
2023/10/18 03:03:15;;;;;;;0.50;0.40;;;17.90;59.80;;;;;;6135521;23;20641;-88
2023/10/18 03:05:44;;;;;;;0.45;0.32;;;17.90;59.80;;;;;;6110712;23;20186;-88
2023/10/18 03:08:15;;;;;;;0.68;0.45;;;17.90;59.70;;;;;;6135374;23;20167;-87
2023/10/18 03:10:48;;;;;;;1.50;0.40;;;17.90;59.80;;;;;;6135460;23;20230;-88
2023/10/18 03:13:17;;;;;;;0.85;0.57;;;17.90;59.80;;;;;;6160200;23;20131;-88
2023/10/18 03:18:25;;;;;;;0.70;0.50;;;17.90;59.90;;;;;;6162220;23;20135;-88
2023/10/18 03:20:55;;;;;;;0.40;0.40;;;17.90;59.80;;;;;;6160313;23;20173;-88
2023/10/18 03:23:22;;;;;;;0.40;0.30;;;17.90;59.80;;;;;;6136628;23;20135;-88
2023/10/18 03:25:59;;;;;;;0.60;0.40;;;17.90;59.90;;;;;;6135173;23;20537;-88
2023/10/18 03:28:36;;;;;;;1.73;0.50;;;17.90;59.80;;;;;;6111239;23;20174;-87
2023/10/18 03:31:12;;;;;;;0.65;0.40;;;17.90;59.90;;;;;;6067681;23;20482;-89
2023/10/18 03:33:45;;;;;;;0.50;0.40;;;17.90;59.70;;;;;;6115022;23;20143;-88
2023/10/18 03:38:54;;;;;;;1.55;0.40;;;17.90;59.80;;;;;;6140316;23;20135;-88
2023/10/18 03:41:25;;;;;;;0.35;0.35;;;17.90;59.80;;;;;;6159735;23;20210;-88
2023/10/18 03:44:06;;;;;;;0.85;0.40;;;17.90;59.80;;;;;;6135352;23;20159;-88
2023/10/18 03:49:16;;;;;;;1.15;0.60;;;17.90;59.80;;;;;;6161616;23;20170;-88
2023/10/18 03:51:42;;;;;;;0.65;0.35;;;17.90;59.80;;;;;;6160585;23;20127;-88
2023/10/18 03:54:13;;;;;;;0.40;0.40;;;17.90;59.90;;;;;;6134203;23;20506;-88
2023/10/18 03:56:45;;;;;;;1.05;0.40;;;17.90;59.80;;;;;;6135354;23;20602;-88
2023/10/18 03:59:20;;;;;;;0.68;0.50;;;17.80;59.80;;;;;;6086058;23;20155;-89
2023/10/18 04:02:27;;;;;;;0.47;0.30;;;17.90;59.80;;;;;;6161737;23;20513;-89
2023/10/18 04:04:44;;;;;;;0.50;0.50;;;17.90;59.70;;;;;;6143027;23;20151;-89
2023/10/18 04:07:19;;;;;;;0.40;0.40;;;17.90;59.80;;;;;;6066227;23;20150;-88
2023/10/18 04:09:47;;;;;;;2.05;0.40;;;17.90;59.90;;;;;;6135784;23;20146;-89
2023/10/18 04:12:19;;;;;;;0.40;0.30;;;17.90;59.90;;;;;;6086059;23;20153;-89
2023/10/18 04:14:50;;;;;;;1.00;0.45;;;17.90;59.90;;;;;;6112141;23;20201;-89
2023/10/18 04:17:19;;;;;;;0.65;0.50;;;17.80;59.80;;;;;;6112125;23;20151;-88
2023/10/18 04:19:47;;;;;;;0.40;0.40;;;17.80;59.80;;;;;;6111378;23;20582;-88
2023/10/18 04:22:14;;;;;;;0.68;0.47;;;17.90;59.90;;;;;;6110750;23;20158;-88
2023/10/18 04:24:42;;;;;;;0.82;0.30;;;17.80;59.80;;;;;;6134531;23;20193;-88
2023/10/18 04:27:11;;;;;;;0.40;0.40;;;17.90;59.90;;;;;;6108619;23;20161;-89
2023/10/18 04:29:39;;;;;;;0.30;0.30;;;17.80;59.70;;;;;;6111469;23;20165;-88
2023/10/18 04:32:17;;;;;;;0.50;0.40;;;17.90;59.80;;;;;;6110879;23;20151;-87
2023/10/18 04:34:44;;;;;;;0.40;0.30;;;17.90;59.80;;;;;;6136918;23;20147;-87
2023/10/18 04:37:12;;;;;;;0.93;0.40;;;17.90;59.80;;;;;;6134788;23;20182;-88
2023/10/18 04:39:40;;;;;;;0.85;0.40;;;17.80;59.80;;;;;;6110997;23;20150;-88
2023/10/18 04:42:08;;;;;;;0.93;0.40;;;17.80;59.90;;;;;;6134632;23;20186;-88
2023/10/18 04:44:35;;;;;;;0.43;0.40;;;17.80;59.90;;;;;;6134753;23;20126;-88
2023/10/18 04:47:03;;;;;;;0.35;0.30;;;17.80;59.90;;;;;;6185159;23;20135;-89
2023/10/18 04:49:36;;;;;;;0.88;0.40;;;17.80;59.90;;;;;;6110975;23;20145;-88
2023/10/18 04:52:04;;;;;;;0.35;0.30;;;17.90;59.80;;;;;;6137526;23;20206;-88
2023/10/18 04:54:41;;;;;;;1.17;0.40;;;17.80;59.80;;;;;;6157961;23;20162;-89
2023/10/18 04:57:11;;;;;;;0.40;0.40;;;17.80;59.80;;;;;;6158713;23;20660;-87
2023/10/18 04:59:52;;;;;;;1.45;0.40;;;17.80;59.70;;;;;;6084992;23;20493;-88
2023/10/18 05:02:19;;;;;;;1.55;0.43;;;17.90;59.80;;;;;;6116679;23;20158;-88
2023/10/18 05:04:46;;;;;;;0.50;0.43;;;17.80;59.90;;;;;;6110606;23;20586;-88
2023/10/18 05:07:14;;;;;;;0.40;0.32;;;17.90;59.90;;;;;;6110466;23;20146;-87
2023/10/18 05:09:42;;;;;;;0.40;0.40;;;17.80;59.80;;;;;;6135350;23;20127;-88
2023/10/18 05:12:27;;;;;;;0.40;0.40;;;17.80;59.90;;;;;;6111047;23;20193;-88
2023/10/18 05:15:06;;;;;;;0.50;0.30;;;17.90;59.80;;;;;;6162495;23;20138;-88
2023/10/18 05:17:35;;;;;;;0.70;0.40;;;17.80;59.80;;;;;;6136805;23;20149;-88
2023/10/18 05:20:21;;;;;;;0.68;0.40;;;17.80;59.90;;;;;;6158592;23;20150;-88
2023/10/18 05:22:52;;;;;;;0.35;0.30;;;17.80;59.80;;;;;;6163411;23;20568;-89
2023/10/18 05:25:29;;;;;;;0.65;0.40;;;17.70;59.80;;;;;;6114150;23;20170;-88
2023/10/18 05:28:00;;;;;;;0.70;0.40;;;17.90;59.60;;;;;;6096831;23;20210;-88
2023/10/18 05:31:03;;;;;;;0.40;0.30;;;18.00;59.60;;;;;;6114746;23;20150;-88
2023/10/18 05:33:42;;;;;;;0.70;0.35;;;17.90;59.70;;;;;;6147574;23;20612;-90
2023/10/18 05:36:29;;;;;;;0.40;0.40;;;17.90;59.50;;;;;;6169954;23;20242;-88
2023/10/18 05:39:12;;;;;;;0.80;0.30;;;18.00;59.70;;;;;;6107264;23;20530;-87
2023/10/18 05:41:45;;;;;;;0.43;0.43;;;17.90;60.30;;;;;;6114512;23;20195;-88
2023/10/18 05:44:12;;;;;;;0.73;0.40;;;17.90;59.40;;;;;;6112183;23;20159;-87
2023/10/18 05:46:44;;;;;;;0.60;0.40;;;17.90;59.10;;;;;;6114241;23;20603;-87
2023/10/18 05:49:14;;;;;;;0.68;0.50;;;17.90;59.10;;;;;;6054723;23;20185;-86
2023/10/18 05:54:22;;;;;;;0.77;0.30;;;18.00;58.50;;;;;;6083668;23;20191;-88
2023/10/18 05:56:56;;;;;;;1.48;0.32;;;18.10;58.20;;;;;;6083727;23;20172;-88
2023/10/18 06:04:55;;;;;;;0.52;0.30;;;18.10;57.70;;;;;;6058161;23;20149;-87
2023/10/18 06:07:26;;;;;;;0.30;0.30;;;18.20;57.50;;;;;;6053543;23;20276;-88
2023/10/18 06:10:00;;;;;;;0.20;0.20;;;18.10;57.50;;;;;;6026760;23;20237;-87
2023/10/18 06:12:36;;;;;;;0.57;0.22;;;18.10;57.40;;;;;;6051490;23;20707;-87
2023/10/18 06:17:50;;;;;;;0.47;0.40;;;18.20;57.20;;;;;;6048261;23;20158;-86
2023/10/18 06:20:32;;;;;;;0.40;0.30;;;18.10;57.20;;;;;;6049324;23;20236;-87
2023/10/18 06:25:46;;;;;;;0.80;0.30;;;18.10;57.00;;;;;;6051356;23;20181;-87
2023/10/18 06:28:20;;;;;;;0.75;0.30;;;18.10;56.90;;;;;;6004720;23;20193;-88
2023/10/18 06:31:08;;;;;;;0.15;0.15;;;18.20;56.90;;;;;;6031042;23;20558;-88
2023/10/18 06:34:15;;;;;;;;;;;;;;;;;;;;;
2023/10/18 06:36:52;;;;;;;1.80;0.30;;;18.10;56.80;;;;;;5962439;24;20151;-87
2023/10/18 06:39:35;;;;;;;0.93;0.30;;;18.10;56.90;;;;;;5940870;24;20160;-87
2023/10/18 06:42:31;;;;;;;0.77;0.20;;;18.20;56.70;;;;;;5972909;24;20198;-86
2023/10/18 06:52:11;;;;;;;0.30;0.28;;;18.20;56.50;;;;;;5993915;24;20177;-85
2023/10/18 06:54:54;;;;;;;0.40;0.25;;;18.20;56.40;;;;;;5991942;24;20155;-86
2023/10/18 06:57:35;;;;;;;1.42;0.30;;;18.20;56.40;;;;;;5969593;24;20188;-88
2023/10/18 07:00:30;;;;;;;0.20;0.20;;;18.20;55.80;;;;;;5944014;24;20156;-88
2023/10/18 07:03:02;;;;;;;1.10;0.20;;;18.20;56.40;;;;;;5882763;24;20241;-86
2023/10/18 07:05:33;;;;;;;3.20;0.45;;;18.20;56.60;;;;;;5831528;24;20189;-87
2023/10/18 07:08:32;;;;;;;0.50;0.30;;;18.20;56.60;;;;;;5856172;24;20218;-87
2023/10/18 07:11:01;;;;;;;0.45;0.35;;;18.20;56.40;;;;;;5896242;24;20168;-86
2023/10/18 07:13:38;;;;;;;0.30;0.30;;;18.30;56.40;;;;;;5950095;24;20156;-87
2023/10/18 07:16:12;;;;;;;0.75;0.40;;;18.20;56.40;;;;;;5973222;24;20155;-85
2023/10/18 07:18:42;;;;;;;0.40;0.40;;;18.20;56.60;;;;;;5979726;23;20166;-86
2023/10/18 07:21:18;;;;;;;0.10;0.10;;;18.30;56.50;;;;;;5953548;23;20274;-86
2023/10/18 07:23:56;;;;;;;1.98;0.30;;;18.30;56.50;;;;;;5943035;24;20159;-87
2023/10/18 07:26:55;;;;;;;1.65;0.25;;;18.20;56.60;;;;;;5879680;24;20167;-85
2023/10/18 07:29:23;;;;;;;0.47;0.30;;;18.20;56.60;;;;;;5938028;24;20188;-85
2023/10/18 07:31:48;;;;;;;6.35;0.80;;;18.20;56.70;;;;;;5919198;24;20164;-87
2023/10/18 07:34:18;;;;;;;3.95;0.50;;;18.20;56.80;;;;;;5936899;24;20814;-85
2023/10/18 07:36:46;;;;;;;0.55;0.20;;;18.20;56.80;;;;;;5965177;23;20159;-85
2023/10/18 07:39:32;;;;;;;1.70;0.60;;;18.00;56.70;;;;;;5976803;23;20264;-85
2023/10/18 07:42:05;;;;;;;6.18;0.45;;;18.20;56.80;;;;;;6014745;23;20193;-85
2023/10/18 07:45:04;;;;;;;0.98;0.20;;;18.20;56.70;;;;;;6005712;23;20457;-84
2023/10/18 07:47:32;;;;;;;5.65;0.40;;;18.10;56.50;;;;;;5967261;24;20658;-85
2023/10/18 07:50:00;;;;;;;5.28;0.60;;;18.20;56.60;;;;;;5972215;24;20166;-83
2023/10/18 07:52:28;;;;;;;7.05;0.60;;;18.20;56.50;;;;;;5971532;24;20155;-85
2023/10/18 07:55:17;;;;;;;3.63;0.45;;;18.20;56.40;;;;;;5972208;24;20155;-85
2023/10/18 07:58:03;;;;;;;4.82;0.55;;;18.20;56.40;;;;;;5962641;24;20232;-85
2023/10/18 08:00:35;;;;;;;3.72;0.40;;;18.20;56.50;;;;;;5967201;23;20159;-86
2023/10/18 08:03:13;;;;;;;2.10;0.35;;;18.20;56.50;;;;;;5977370;23;20230;-85
2023/10/18 08:05:50;;;;;;;2.45;0.40;;;18.20;56.40;;;;;;5974653;23;20159;-84
2023/10/18 08:08:24;;;;;;;5.95;0.65;;;18.20;56.40;;;;;;6000847;23;20201;-84
2023/10/18 08:10:50;;;;;;;4.60;0.68;;;18.10;56.30;;;;;;6000060;23;20142;-86
2023/10/18 08:13:27;;;;;;;4.30;0.40;;;18.20;56.30;;;;;;5976446;23;20154;-84
2023/10/18 08:16:01;;;;;;;3.75;0.40;;;18.20;56.20;;;;;;5975224;23;20595;-85
2023/10/18 08:18:43;;;;;;;4.18;0.52;;;18.20;56.40;;;;;;6022830;23;20161;-86
2023/10/18 08:21:34;;;;;;;5.80;0.63;;;18.20;56.40;;;;;;6086927;23;20159;-87
2023/10/18 08:24:08;;;;;;;4.45;0.73;;;18.20;56.40;;;;;;6055366;23;20180;-84
2023/10/18 08:26:59;;;;;;;8.73;0.70;;;18.10;56.30;;;;;;6085812;23;20140;-86
2023/10/18 08:29:34;;;;;;;4.95;0.65;;;18.10;56.90;;;;;;6056186;23;20183;-85
2023/10/18 08:32:06;;;;;;;3.53;0.68;;;18.20;56.20;;;;;;6089243;23;20179;-85
2023/10/18 08:34:34;;;;;;;3.92;1.00;;;18.20;56.20;;;;;;6055442;23;20235;-86
2023/10/18 08:37:20;;;;;;;8.40;1.00;;;18.20;56.20;;;;;;6070660;23;20163;-87
2023/10/18 08:39:55;;;;;;;2.05;0.50;;;18.20;56.10;;;;;;6081195;23;20160;-85
2023/10/18 08:42:30;;;;;;;4.65;0.68;;;18.20;56.20;;;;;;6100617;23;20646;-86
2023/10/18 08:45:09;;;;;;;2.42;0.70;;;18.20;56.10;;;;;;6082962;23;20161;-86
2023/10/18 08:47:49;;;;;;;3.80;0.60;;;18.30;56.00;;;;;;6103593;23;20663;-85
2023/10/18 08:50:20;;;;;;;3.85;0.70;;;18.20;56.00;;;;;;6075954;23;20152;-86
2023/10/18 08:52:49;;;;;;;3.67;0.80;;;18.20;55.80;;;;;;5997096;23;20182;-84
2023/10/18 08:55:23;;;;;;;0.75;0.50;;;18.20;55.80;;;;;;5995723;23;20167;-86
2023/10/18 08:57:55;;;;;;;1.85;0.93;;;18.20;55.80;;;;;;6017414;23;20169;-87
2023/10/18 09:01:21;;;;;;;;;;;;;;;;;;;;;
2023/10/18 09:03:57;;;;;;;2.33;0.52;;;18.30;55.70;;;;;;5938772;24;20208;-86
2023/10/18 09:07:03;;;;;;;3.53;0.90;;;18.30;55.50;;;;;;5961650;24;20164;-88
2023/10/18 09:09:35;;;;;;;1.23;0.85;;;18.30;55.50;;;;;;5938496;24;20282;-89
2023/10/18 09:12:15;;;;;;;3.47;0.88;;;18.30;55.20;;;;;;5958531;24;20585;-87
2023/10/18 09:18:36;;;;;;;;;;;;;;;;;;;;;
2023/10/18 09:24:07;;;;;;;6.22;1.13;;;18.30;54.60;;;;;;5874561;24;20154;-88
2023/10/18 09:26:52;;;;;;;3.53;0.70;;;18.30;54.60;;;;;;5788756;24;20166;-86
2023/10/18 09:29:18;;;;;;;5.05;0.75;;;18.30;54.60;;;;;;5790575;24;20195;-89
2023/10/18 09:34:34;;;;;;;3.97;0.88;;;18.30;54.40;;;;;;5822449;24;20159;-88
2023/10/18 09:38:17;;;;;;;;;;;;;;;;;;;;;
2023/10/18 09:44:45;;;;;;;;;;;;;;;;;;;;;
2023/10/18 09:47:26;;;;;;;2.13;0.70;;;18.30;53.60;;;;;;5825180;24;20647;-87
2023/10/18 09:50:05;;;;;;;4.05;1.00;;;18.40;53.60;;;;;;5795489;24;20184;-88
2023/10/18 09:52:32;;;;;;;7.30;1.23;;;18.50;53.50;;;;;;5853062;24;20310;-87
2023/10/18 09:55:16;;;;;;;;;;;;;;;;;;;;;
2023/10/18 09:58:15;;;;;;;13.18;1.13;;;18.40;53.40;;;;;;5840206;24;20201;-89
2023/10/18 10:01:14;;;;;;;6.03;0.90;;;18.40;54.00;;;;;;5850536;24;20730;-88
2023/10/18 10:04:04;;;;;;;7.78;1.08;;;18.40;54.00;;;;;;5739111;24;20538;-88
2023/10/18 10:06:31;;;;;;;5.60;1.02;;;18.40;53.90;;;;;;5765039;24;20173;-87
2023/10/18 10:11:52;;;;;;;1.50;0.70;;;18.40;53.70;;;;;;5748972;25;20232;-87
2023/10/18 10:14:22;;;;;;;2.97;1.00;;;18.40;53.40;;;;;;5763011;24;20167;-87
2023/10/18 10:17:05;;;;;;;5.30;0.80;;;18.40;53.10;;;;;;5778758;24;20160;-85
2023/10/18 10:19:33;;;;;;;4.13;0.85;;;18.40;52.90;;;;;;5801702;24;20170;-86
2023/10/18 10:22:06;;;;;;;2.60;0.98;;;18.40;52.80;;;;;;5824642;24;20234;-84
2023/10/18 10:24:42;;;;;;;2.72;0.77;;;18.40;52.60;;;;;;5858011;24;20206;-86
2023/10/18 10:27:30;;;;;;;5.57;1.08;;;18.40;52.40;;;;;;5882471;24;20173;-85
2023/10/18 10:30:27;;;;;;;3.22;1.20;;;18.30;52.30;;;;;;5872416;24;20212;-85
2023/10/18 10:32:58;;;;;;;5.03;0.80;;;18.40;52.20;;;;;;5987169;23;20146;-87
2023/10/18 10:35:24;;;;;;;3.08;1.00;;;18.30;52.10;;;;;;6018066;23;20146;-85
2023/10/18 10:37:55;;;;;;;3.00;0.88;;;18.30;52.00;;;;;;6083923;23;20242;-85
2023/10/18 10:43:02;;;;;;;3.70;0.80;;;18.30;51.60;;;;;;6076302;23;20250;-87
2023/10/18 10:45:35;;;;;;;2.40;0.77;;;18.30;51.40;;;;;;6140249;23;20205;-86
2023/10/18 10:48:30;;;;;;;3.65;0.88;;;18.30;51.50;;;;;;6115988;23;20776;-85
2023/10/18 10:51:09;;;;;;;2.85;0.90;;;18.30;51.40;;;;;;6142379;23;20170;-86
2023/10/18 10:53:43;;;;;;;3.17;0.93;;;18.20;51.00;;;;;;6145724;23;20148;-86
2023/10/18 10:56:48;;;;;;;2.55;0.90;;;18.30;51.00;;;;;;6089645;23;20152;-86
2023/10/18 10:59:19;;;;;;;2.63;1.00;;;18.20;50.70;;;;;;6089753;23;20585;-86
2023/10/18 11:02:06;;;;;;;4.28;0.80;;;18.30;50.70;;;;;;6062859;23;20484;-86
2023/10/18 11:07:24;;;;;;;2.22;0.90;;;18.30;50.10;;;;;;6090778;23;20223;-86
2023/10/18 11:09:54;;;;;;;2.92;0.90;;;18.30;50.30;;;;;;6082105;23;20191;-85
2023/10/18 11:12:23;;;;;;;0.60;0.50;;;18.30;50.00;;;;;;6086634;23;20212;-86
2023/10/18 11:14:52;;;;;;;2.08;0.70;;;18.30;49.80;;;;;;6108688;23;20136;-86
2023/10/18 11:17:18;;;;;;;2.72;0.90;;;18.30;49.60;;;;;;6085695;23;20188;-86
2023/10/18 11:19:51;;;;;;;1.42;0.50;;;18.30;49.50;;;;;;6085572;23;20144;-86
2023/10/18 11:22:22;;;;;;;2.75;0.52;;;18.40;49.30;;;;;;6087499;23;20152;-85
2023/10/18 11:24:55;;;;;;;1.88;0.80;;;18.40;49.20;;;;;;6086481;23;20137;-87
2023/10/18 11:27:25;;;;;;;1.23;0.70;;;18.30;49.00;;;;;;6072591;23;20154;-86
2023/10/18 11:30:03;;;;;;;0.90;0.70;;;18.40;49.00;;;;;;6094811;23;20150;-85
2023/10/18 11:32:36;;;;;;;4.80;1.02;;;18.30;48.90;;;;;;6116456;23;20664;-85
2023/10/18 11:35:16;;;;;;;0.85;0.65;;;18.40;48.70;;;;;;6088203;23;20159;-87
2023/10/18 11:37:44;;;;;;;4.18;0.80;;;18.40;48.70;;;;;;6164636;23;20141;-86
2023/10/18 11:40:15;;;;;;;1.40;0.68;;;18.40;48.50;;;;;;6163848;23;20510;-86
2023/10/18 11:43:20;;;;;;;0.95;0.80;;;18.40;48.50;;;;;;6115322;23;20625;-86
2023/10/18 11:45:49;;;;;;;1.30;0.65;;;18.40;48.40;;;;;;6193413;23;20157;-86
2023/10/18 11:48:16;;;;;;;1.65;0.60;;;18.40;48.20;;;;;;6111617;23;20511;-86
2023/10/18 11:54:06;;;;;;;2.92;0.70;;;18.40;47.90;;;;;;5988495;23;20155;-86
2023/10/18 11:57:10;;;;;;;0.85;0.82;;;18.40;47.90;;;;;;6017471;23;20149;-86
2023/10/18 12:06:20;;;;;;;2.40;0.60;;;18.30;47.60;;;;;;5902705;24;20156;-87
2023/10/18 12:11:41;;;;;;;0.98;0.70;;;18.40;47.30;;;;;;5846280;24;20163;-86
2023/10/18 12:14:09;;;;;;;3.25;0.80;;;18.40;47.20;;;;;;5846643;24;20156;-88
2023/10/18 12:16:35;;;;;;;1.17;0.80;;;18.40;47.30;;;;;;5851990;24;20589;-86
2023/10/18 12:19:13;;;;;;;2.25;0.70;;;18.40;47.20;;;;;;5800252;24;20167;-89
2023/10/18 12:21:38;;;;;;;3.65;1.30;;;18.40;47.10;;;;;;5844506;24;20166;-86
2023/10/18 12:24:06;;;;;;;2.05;0.63;;;18.40;47.10;;;;;;5840804;24;20628;-85
2023/10/18 12:26:34;;;;;;;3.05;0.60;;;18.40;46.90;;;;;;5847817;24;20235;-86
2023/10/18 12:29:05;;;;;;;1.40;0.68;;;18.40;46.70;;;;;;5825008;24;20251;-87
2023/10/18 12:31:39;;;;;;;2.10;0.90;;;18.30;46.60;;;;;;5844690;24;20159;-86
2023/10/18 12:34:15;;;;;;;2.60;0.90;;;18.40;46.70;;;;;;5824535;24;20154;-87
2023/10/18 12:36:49;;;;;;;2.17;0.70;;;18.40;46.70;;;;;;5826136;24;20246;-85
2023/10/18 12:39:20;;;;;;;2.30;0.63;;;18.30;46.70;;;;;;5889006;23;20213;-87
2023/10/18 12:41:52;;;;;;;3.15;0.70;;;18.30;46.60;;;;;;6027944;23;20236;-88
2023/10/18 12:44:18;;;;;;;1.45;0.60;;;18.40;46.40;;;;;;6112037;23;20158;-87
2023/10/18 12:46:45;;;;;;;1.00;0.60;;;18.30;46.30;;;;;;6136358;23;20150;-87
2023/10/18 12:49:11;;;;;;;0.80;0.52;;;18.40;46.30;;;;;;6109649;23;20492;-86
2023/10/18 12:51:41;;;;;;;0.90;0.60;;;18.40;46.10;;;;;;6136035;23;20193;-88
2023/10/18 12:54:19;;;;;;;1.23;0.55;;;18.30;46.00;;;;;;6137288;23;20226;-86
2023/10/18 12:56:57;;;;;;;1.77;0.50;;;18.40;46.00;;;;;;6141234;23;20126;-87
2023/10/18 12:59:23;;;;;;;1.00;0.68;;;18.30;45.80;;;;;;6110877;23;20490;-87
2023/10/18 13:01:50;;;;;;;1.20;0.60;;;18.30;45.80;;;;;;6112101;23;20150;-87
2023/10/18 13:04:18;;;;;;;0.70;0.60;;;18.30;45.70;;;;;;6107899;23;20147;-87
2023/10/18 13:06:45;;;;;;;0.90;0.70;;;18.30;45.80;;;;;;6113303;23;20146;-88
2023/10/18 13:09:15;;;;;;;2.67;0.70;;;18.30;45.80;;;;;;6106331;23;20301;-86
2023/10/18 13:14:14;;;;;;;0.98;0.60;;;18.30;45.70;;;;;;6166491;23;20163;-85
2023/10/18 13:16:44;;;;;;;2.67;0.68;;;18.30;45.70;;;;;;6114884;23;20162;-83
2023/10/18 13:19:15;;;;;;;1.95;0.80;;;18.40;45.70;;;;;;6169105;23;20226;-85
2023/10/18 13:21:43;;;;;;;1.77;0.52;;;18.40;45.70;;;;;;6147088;23;20586;-85
2023/10/18 13:24:17;;;;;;;1.40;0.68;;;18.30;45.60;;;;;;6117797;23;20159;-86
2023/10/18 13:26:45;;;;;;;1.02;0.70;;;18.30;45.50;;;;;;6073360;23;20160;-86
2023/10/18 13:32:40;;;;;;;1.33;0.60;;;18.30;45.30;;;;;;6076846;23;20150;-86
2023/10/18 16:47:06;;;;;;;12.32;2.00;;;18.00;45.70;;;;;;6256044;22;20191;-85
2023/10/18 16:50:13;;;;;;;;;;;;;;;;;;;;;
2023/10/18 16:52:53;;;;;;;;;;;;;;;;;;;;;
2023/10/18 16:55:46;;;;;;;13.75;1.50;;;18.10;46.00;;;;;;6106535;23;20187;-84
2023/10/18 16:58:25;;;;;;;14.25;2.03;;;18.00;46.00;;;;;;6077281;23;20293;-85
2023/10/18 17:01:22;;;;;;;9.50;1.77;;;18.00;46.10;;;;;;6132885;23;20163;-86
2023/10/18 17:03:47;;;;;;;20.48;2.10;;;18.10;46.20;;;;;;6011435;23;20162;-85
2023/10/18 17:06:14;;;;;;;17.50;1.90;;;18.10;46.20;;;;;;6010201;23;20166;-82
2023/10/18 17:08:40;;;;;;;9.02;1.10;;;18.10;46.10;;;;;;6010196;23;20246;-84
2023/10/18 17:11:12;;;;;;;11.48;1.60;;;18.20;46.10;;;;;;6010126;23;20162;-86
2023/10/18 17:13:39;;;;;;;4.20;1.30;;;18.20;46.10;;;;;;5963546;23;20155;-83
2023/10/18 17:16:06;;;;;;;10.88;1.30;;;18.20;46.10;;;;;;5988026;23;20206;-84
2023/10/18 17:18:37;;;;;;;10.77;1.70;;;18.20;46.00;;;;;;5986638;23;20163;-84
2023/10/18 17:21:05;;;;;;;7.28;1.52;;;18.20;46.00;;;;;;5988289;23;20187;-85
2023/10/18 17:23:34;;;;;;;8.10;2.10;;;18.20;46.10;;;;;;5993241;23;20170;-86
2023/10/18 17:26:01;;;;;;;12.32;1.63;;;18.20;46.10;;;;;;6016394;23;20155;-86
2023/10/18 17:28:35;;;;;;;7.53;1.38;;;18.20;46.10;;;;;;6035579;23;20174;-83
2023/10/18 17:31:11;;;;;;;10.85;2.10;;;18.20;46.20;;;;;;6041165;23;20213;-87
2023/10/18 17:33:42;;;;;;;9.00;1.58;;;18.10;46.40;;;;;;6030464;23;20151;-84
2023/10/18 17:36:10;;;;;;;6.47;1.50;;;18.10;46.40;;;;;;6133442;23;20269;-87
2023/10/18 17:38:40;;;;;;;15.10;2.10;;;18.10;46.40;;;;;;6158675;23;20131;-86
2023/10/18 17:41:09;;;;;;;11.55;1.60;;;18.20;46.50;;;;;;6085493;23;20955;-87
2023/10/18 17:43:35;;;;;;;9.00;1.58;;;18.10;46.70;;;;;;6108327;23;20160;-86
2023/10/18 17:46:06;;;;;;;13.93;1.58;;;18.10;46.60;;;;;;6137461;23;20456;-86
2023/10/18 17:48:35;;;;;;;18.67;2.20;;;18.10;46.70;;;;;;6142019;23;20202;-86
2023/10/18 17:51:11;;;;;;;9.68;1.65;;;18.10;46.80;;;;;;6116217;23;20154;-86
2023/10/18 17:53:47;;;;;;;14.75;1.75;;;18.10;47.00;;;;;;6142000;23;20150;-86